AIRPORT ID: KTNP

DATE: 2024-06-16 ZULU TIME: 15.55 LOCAL TIME: 8.55


METAR KTNP 161555Z AUTO 25007KT 10SM 28/02 A2981

ALTIMETER: A2981 Q1009

DENSITY ALT: 3800 Ft

WIND DIRECT: 270

WIND SPEED: 7 Gust

WIND CONDITIONS:

VISIBILTY: 10SM 9999M

TEMPERATURE: 83 F 28 C

DEW POINT: 35 F 2 C

HUMID: 18%

LCL: Above 5,000 feet

RADIO CHECK: 0

ADVISARIES: 0

GREETINGS: 0

CONVERSATIONS: 0